sensor_id;sensor_type;location;lat;lon;timestamp;P1;durP1;ratioP1;P2;durP2;ratioP2
68432;SDS011;55412;51.350;17.056;2023-06-22T00:02:17;16.47;;;11.90;;
68432;SDS011;55412;51.350;17.056;2023-06-22T00:04:43;15.40;;;10.77;;
68432;SDS011;55412;51.350;17.056;2023-06-22T00:07:10;17.67;;;12.00;;
68432;SDS011;55412;51.350;17.056;2023-06-22T00:09:36;19.98;;;11.30;;
68432;SDS011;55412;51.350;17.056;2023-06-22T00:12:02;16.10;;;10.57;;
68432;SDS011;55412;51.350;17.056;2023-06-22T00:14:29;14.00;;;10.03;;
68432;SDS011;55412;51.350;17.056;2023-06-22T00:16:55;15.70;;;10.27;;
68432;SDS011;55412;51.350;17.056;2023-06-22T00:19:24;15.23;;;9.45;;
68432;SDS011;55412;51.350;17.056;2023-06-22T00:21:50;15.18;;;9.77;;
68432;SDS011;55412;51.350;17.056;2023-06-22T00:24:19;15.07;;;10.07;;
68432;SDS011;55412;51.350;17.056;2023-06-22T00:26:47;15.57;;;9.00;;
68432;SDS011;55412;51.350;17.056;2023-06-22T00:29:14;15.48;;;9.68;;
68432;SDS011;55412;51.350;17.056;2023-06-22T00:31:40;15.45;;;9.45;;
68432;SDS011;55412;51.350;17.056;2023-06-22T00:34:06;16.25;;;10.15;;
68432;SDS011;55412;51.350;17.056;2023-06-22T00:36:34;20.27;;;10.43;;
68432;SDS011;55412;51.350;17.056;2023-06-22T00:39:01;18.40;;;11.20;;
68432;SDS011;55412;51.350;17.056;2023-06-22T00:41:27;16.80;;;10.85;;
68432;SDS011;55412;51.350;17.056;2023-06-22T00:43:54;15.98;;;9.82;;
68432;SDS011;55412;51.350;17.056;2023-06-22T00:46:21;14.40;;;9.48;;
68432;SDS011;55412;51.350;17.056;2023-06-22T00:48:48;16.20;;;9.20;;
68432;SDS011;55412;51.350;17.056;2023-06-22T00:51:15;11.83;;;8.63;;
68432;SDS011;55412;51.350;17.056;2023-06-22T00:53:41;15.73;;;9.05;;
68432;SDS011;55412;51.350;17.056;2023-06-22T00:56:08;16.83;;;10.23;;
68432;SDS011;55412;51.350;17.056;2023-06-22T00:58:37;19.42;;;11.80;;
68432;SDS011;55412;51.350;17.056;2023-06-22T01:01:06;14.57;;;10.38;;
68432;SDS011;55412;51.350;17.056;2023-06-22T01:03:33;17.33;;;11.57;;
68432;SDS011;55412;51.350;17.056;2023-06-22T01:06:02;15.15;;;10.75;;
68432;SDS011;55412;51.350;17.056;2023-06-22T01:08:43;16.35;;;10.35;;
68432;SDS011;55412;51.350;17.056;2023-06-22T01:11:35;18.77;;;10.88;;
68432;SDS011;55412;51.350;17.056;2023-06-22T01:14:18;19.33;;;10.55;;
68432;SDS011;55412;51.350;17.056;2023-06-22T01:17:07;15.43;;;9.70;;
68432;SDS011;55412;51.350;17.056;2023-06-22T01:19:39;16.42;;;10.80;;
68432;SDS011;55412;51.350;17.056;2023-06-22T01:22:20;16.70;;;10.10;;
68432;SDS011;55412;51.350;17.056;2023-06-22T01:27:58;17.35;;;10.43;;
68432;SDS011;55412;51.350;17.056;2023-06-22T01:31:07;18.23;;;11.00;;
68432;SDS011;55412;51.350;17.056;2023-06-22T01:33:37;16.23;;;10.32;;
68432;SDS011;55412;51.350;17.056;2023-06-22T01:36:07;22.40;;;10.88;;
68432;SDS011;55412;51.350;17.056;2023-06-22T01:38:34;20.52;;;11.93;;
68432;SDS011;55412;51.350;17.056;2023-06-22T01:41:02;19.63;;;10.68;;
68432;SDS011;55412;51.350;17.056;2023-06-22T01:43:29;16.33;;;10.90;;
68432;SDS011;55412;51.350;17.056;2023-06-22T01:45:56;18.42;;;11.07;;
68432;SDS011;55412;51.350;17.056;2023-06-22T01:48:26;20.15;;;10.85;;
68432;SDS011;55412;51.350;17.056;2023-06-22T01:50:53;16.60;;;10.52;;
68432;SDS011;55412;51.350;17.056;2023-06-22T01:53:20;17.58;;;11.35;;
68432;SDS011;55412;51.350;17.056;2023-06-22T01:55:48;20.40;;;12.27;;
68432;SDS011;55412;51.350;17.056;2023-06-22T01:58:14;19.17;;;12.32;;
68432;SDS011;55412;51.350;17.056;2023-06-22T02:00:42;19.00;;;11.75;;
68432;SDS011;55412;51.350;17.056;2023-06-22T02:03:14;23.17;;;12.95;;
68432;SDS011;55412;51.350;17.056;2023-06-22T02:06:01;16.33;;;10.88;;
68432;SDS011;55412;51.350;17.056;2023-06-22T02:08:33;17.00;;;10.90;;
68432;SDS011;55412;51.350;17.056;2023-06-22T02:11:08;18.67;;;11.13;;
68432;SDS011;55412;51.350;17.056;2023-06-22T02:13:36;17.90;;;11.38;;
68432;SDS011;55412;51.350;17.056;2023-06-22T02:16:08;17.85;;;11.00;;
68432;SDS011;55412;51.350;17.056;2023-06-22T02:18:36;17.83;;;11.50;;
68432;SDS011;55412;51.350;17.056;2023-06-22T02:21:03;18.33;;;10.77;;
68432;SDS011;55412;51.350;17.056;2023-06-22T02:23:28;18.60;;;10.85;;
68432;SDS011;55412;51.350;17.056;2023-06-22T02:25:54;19.42;;;11.25;;
68432;SDS011;55412;51.350;17.056;2023-06-22T02:28:21;19.02;;;11.10;;
68432;SDS011;55412;51.350;17.056;2023-06-22T02:30:47;17.57;;;11.30;;
68432;SDS011;55412;51.350;17.056;2023-06-22T02:33:13;17.70;;;10.43;;
68432;SDS011;55412;51.350;17.056;2023-06-22T02:35:39;18.67;;;11.70;;
68432;SDS011;55412;51.350;17.056;2023-06-22T02:38:10;19.60;;;11.95;;
68432;SDS011;55412;51.350;17.056;2023-06-22T02:40:36;19.40;;;12.15;;
68432;SDS011;55412;51.350;17.056;2023-06-22T02:43:02;18.70;;;11.27;;
68432;SDS011;55412;51.350;17.056;2023-06-22T02:45:28;19.60;;;11.07;;
68432;SDS011;55412;51.350;17.056;2023-06-22T02:47:55;20.67;;;11.65;;
68432;SDS011;55412;51.350;17.056;2023-06-22T02:50:21;21.15;;;10.98;;
68432;SDS011;55412;51.350;17.056;2023-06-22T02:52:47;19.70;;;11.48;;
68432;SDS011;55412;51.350;17.056;2023-06-22T02:55:13;17.02;;;10.70;;
68432;SDS011;55412;51.350;17.056;2023-06-22T02:57:39;17.47;;;11.33;;
68432;SDS011;55412;51.350;17.056;2023-06-22T03:00:09;16.95;;;10.70;;
68432;SDS011;55412;51.350;17.056;2023-06-22T03:02:46;21.55;;;12.15;;
68432;SDS011;55412;51.350;17.056;2023-06-22T03:05:13;16.65;;;11.05;;
68432;SDS011;55412;51.350;17.056;2023-06-22T03:07:46;19.10;;;11.32;;
68432;SDS011;55412;51.350;17.056;2023-06-22T03:10:13;19.53;;;11.73;;
68432;SDS011;55412;51.350;17.056;2023-06-22T03:12:40;18.55;;;11.10;;
68432;SDS011;55412;51.350;17.056;2023-06-22T03:15:08;17.45;;;11.98;;
68432;SDS011;55412;51.350;17.056;2023-06-22T03:17:37;20.95;;;11.55;;
68432;SDS011;55412;51.350;17.056;2023-06-22T03:20:05;18.73;;;11.68;;
68432;SDS011;55412;51.350;17.056;2023-06-22T03:22:37;17.10;;;11.50;;
68432;SDS011;55412;51.350;17.056;2023-06-22T03:25:05;19.52;;;12.38;;
68432;SDS011;55412;51.350;17.056;2023-06-22T03:27:44;20.10;;;12.85;;
68432;SDS011;55412;51.350;17.056;2023-06-22T03:30:11;24.80;;;13.70;;
68432;SDS011;55412;51.350;17.056;2023-06-22T03:32:37;18.05;;;12.40;;
68432;SDS011;55412;51.350;17.056;2023-06-22T03:35:04;19.93;;;11.83;;
68432;SDS011;55412;51.350;17.056;2023-06-22T03:37:31;22.05;;;13.95;;
68432;SDS011;55412;51.350;17.056;2023-06-22T03:39:57;19.10;;;12.68;;
68432;SDS011;55412;51.350;17.056;2023-06-22T03:42:23;21.42;;;13.80;;
68432;SDS011;55412;51.350;17.056;2023-06-22T03:44:49;20.33;;;12.25;;
68432;SDS011;55412;51.350;17.056;2023-06-22T03:47:15;18.57;;;13.33;;
68432;SDS011;55412;51.350;17.056;2023-06-22T03:49:42;20.83;;;12.73;;
68432;SDS011;55412;51.350;17.056;2023-06-22T03:52:09;20.77;;;13.63;;
68432;SDS011;55412;51.350;17.056;2023-06-22T03:54:36;20.67;;;12.45;;
68432;SDS011;55412;51.350;17.056;2023-06-22T03:57:02;18.20;;;13.07;;
68432;SDS011;55412;51.350;17.056;2023-06-22T03:59:28;19.00;;;12.37;;
68432;SDS011;55412;51.350;17.056;2023-06-22T04:01:54;21.83;;;12.35;;
68432;SDS011;55412;51.350;17.056;2023-06-22T04:04:20;23.63;;;13.32;;
68432;SDS011;55412;51.350;17.056;2023-06-22T04:06:46;20.95;;;12.52;;
68432;SDS011;55412;51.350;17.056;2023-06-22T04:09:12;20.95;;;11.50;;
68432;SDS011;55412;51.350;17.056;2023-06-22T04:11:38;21.67;;;12.90;;
68432;SDS011;55412;51.350;17.056;2023-06-22T04:14:04;18.17;;;12.52;;
68432;SDS011;55412;51.350;17.056;2023-06-22T04:16:30;19.95;;;12.68;;
68432;SDS011;55412;51.350;17.056;2023-06-22T04:18:56;22.58;;;13.10;;
68432;SDS011;55412;51.350;17.056;2023-06-22T04:21:22;20.33;;;13.00;;
68432;SDS011;55412;51.350;17.056;2023-06-22T04:23:48;18.03;;;11.90;;
68432;SDS011;55412;51.350;17.056;2023-06-22T04:26:14;19.65;;;13.90;;
68432;SDS011;55412;51.350;17.056;2023-06-22T04:28:40;18.90;;;13.15;;
68432;SDS011;55412;51.350;17.056;2023-06-22T04:31:07;19.63;;;13.38;;
68432;SDS011;55412;51.350;17.056;2023-06-22T04:33:33;21.00;;;14.25;;
68432;SDS011;55412;51.350;17.056;2023-06-22T04:35:59;20.13;;;13.57;;
68432;SDS011;55412;51.350;17.056;2023-06-22T04:38:26;20.95;;;14.25;;
68432;SDS011;55412;51.350;17.056;2023-06-22T04:40:52;21.23;;;13.45;;
68432;SDS011;55412;51.350;17.056;2023-06-22T04:43:19;21.92;;;13.48;;
68432;SDS011;55412;51.350;17.056;2023-06-22T04:45:45;24.70;;;16.55;;
68432;SDS011;55412;51.350;17.056;2023-06-22T04:48:11;25.10;;;15.37;;
68432;SDS011;55412;51.350;17.056;2023-06-22T04:50:41;24.17;;;16.75;;
68432;SDS011;55412;51.350;17.056;2023-06-22T04:53:07;24.35;;;15.45;;
68432;SDS011;55412;51.350;17.056;2023-06-22T04:55:38;22.33;;;15.38;;
68432;SDS011;55412;51.350;17.056;2023-06-22T04:58:06;24.42;;;17.35;;
68432;SDS011;55412;51.350;17.056;2023-06-22T05:00:32;26.50;;;17.53;;
68432;SDS011;55412;51.350;17.056;2023-06-22T05:03:01;22.10;;;16.40;;
68432;SDS011;55412;51.350;17.056;2023-06-22T05:05:28;23.20;;;15.70;;
68432;SDS011;55412;51.350;17.056;2023-06-22T05:07:56;24.33;;;17.15;;
68432;SDS011;55412;51.350;17.056;2023-06-22T05:10:25;25.92;;;17.60;;
68432;SDS011;55412;51.350;17.056;2023-06-22T05:12:51;25.03;;;18.20;;
68432;SDS011;55412;51.350;17.056;2023-06-22T05:15:17;25.73;;;17.40;;
68432;SDS011;55412;51.350;17.056;2023-06-22T05:17:51;29.45;;;16.80;;
68432;SDS011;55412;51.350;17.056;2023-06-22T05:20:17;25.70;;;16.80;;
68432;SDS011;55412;51.350;17.056;2023-06-22T05:22:43;25.52;;;17.45;;
68432;SDS011;55412;51.350;17.056;2023-06-22T05:25:10;23.30;;;17.10;;
68432;SDS011;55412;51.350;17.056;2023-06-22T05:27:37;25.27;;;16.98;;
68432;SDS011;55412;51.350;17.056;2023-06-22T05:30:07;23.33;;;16.98;;
68432;SDS011;55412;51.350;17.056;2023-06-22T05:32:35;25.23;;;16.38;;
68432;SDS011;55412;51.350;17.056;2023-06-22T05:35:02;25.77;;;17.80;;
68432;SDS011;55412;51.350;17.056;2023-06-22T05:37:29;25.77;;;17.70;;
68432;SDS011;55412;51.350;17.056;2023-06-22T05:39:55;27.80;;;18.98;;
68432;SDS011;55412;51.350;17.056;2023-06-22T05:42:22;26.10;;;17.60;;
68432;SDS011;55412;51.350;17.056;2023-06-22T05:44:50;28.40;;;19.08;;
68432;SDS011;55412;51.350;17.056;2023-06-22T05:47:18;28.25;;;19.80;;
68432;SDS011;55412;51.350;17.056;2023-06-22T05:49:44;28.17;;;20.03;;
68432;SDS011;55412;51.350;17.056;2023-06-22T05:52:10;29.98;;;21.50;;
68432;SDS011;55412;51.350;17.056;2023-06-22T05:54:36;28.42;;;20.65;;
68432;SDS011;55412;51.350;17.056;2023-06-22T05:57:04;28.90;;;19.83;;
68432;SDS011;55412;51.350;17.056;2023-06-22T05:59:31;22.95;;;16.40;;
68432;SDS011;55412;51.350;17.056;2023-06-22T06:01:57;22.30;;;15.43;;
68432;SDS011;55412;51.350;17.056;2023-06-22T06:04:23;21.15;;;14.88;;
68432;SDS011;55412;51.350;17.056;2023-06-22T06:06:49;22.17;;;14.50;;
68432;SDS011;55412;51.350;17.056;2023-06-22T06:09:15;24.42;;;15.05;;
68432;SDS011;55412;51.350;17.056;2023-06-22T06:11:41;19.63;;;15.05;;
68432;SDS011;55412;51.350;17.056;2023-06-22T06:14:08;22.63;;;16.37;;
68432;SDS011;55412;51.350;17.056;2023-06-22T06:16:34;21.90;;;16.38;;
68432;SDS011;55412;51.350;17.056;2023-06-22T06:19:00;26.33;;;16.08;;
68432;SDS011;55412;51.350;17.056;2023-06-22T06:21:26;20.45;;;14.77;;
68432;SDS011;55412;51.350;17.056;2023-06-22T06:23:52;21.67;;;16.00;;
68432;SDS011;55412;51.350;17.056;2023-06-22T06:26:18;25.23;;;16.67;;
68432;SDS011;55412;51.350;17.056;2023-06-22T06:28:53;21.50;;;15.90;;
68432;SDS011;55412;51.350;17.056;2023-06-22T06:31:20;19.88;;;14.63;;
68432;SDS011;55412;51.350;17.056;2023-06-22T06:33:46;19.98;;;14.10;;
68432;SDS011;55412;51.350;17.056;2023-06-22T06:36:12;18.90;;;13.95;;
68432;SDS011;55412;51.350;17.056;2023-06-22T06:38:38;19.73;;;14.57;;
68432;SDS011;55412;51.350;17.056;2023-06-22T06:41:04;19.60;;;13.95;;
68432;SDS011;55412;51.350;17.056;2023-06-22T06:43:30;18.95;;;12.85;;
68432;SDS011;55412;51.350;17.056;2023-06-22T06:45:56;18.40;;;12.77;;
68432;SDS011;55412;51.350;17.056;2023-06-22T06:48:22;19.23;;;13.23;;
68432;SDS011;55412;51.350;17.056;2023-06-22T06:50:48;21.07;;;13.80;;
68432;SDS011;55412;51.350;17.056;2023-06-22T06:53:15;18.52;;;12.27;;
68432;SDS011;55412;51.350;17.056;2023-06-22T06:55:41;16.67;;;12.65;;
68432;SDS011;55412;51.350;17.056;2023-06-22T06:58:07;16.00;;;12.18;;
68432;SDS011;55412;51.350;17.056;2023-06-22T07:00:34;16.13;;;12.40;;
68432;SDS011;55412;51.350;17.056;2023-06-22T07:03:01;16.17;;;12.83;;
68432;SDS011;55412;51.350;17.056;2023-06-22T07:05:27;15.93;;;12.43;;
68432;SDS011;55412;51.350;17.056;2023-06-22T07:07:53;16.60;;;12.88;;
68432;SDS011;55412;51.350;17.056;2023-06-22T07:10:19;16.60;;;12.55;;
68432;SDS011;55412;51.350;17.056;2023-06-22T07:12:45;16.13;;;12.93;;
68432;SDS011;55412;51.350;17.056;2023-06-22T07:15:11;14.60;;;12.00;;
68432;SDS011;55412;51.350;17.056;2023-06-22T07:17:39;14.95;;;12.20;;
68432;SDS011;55412;51.350;17.056;2023-06-22T07:20:06;15.50;;;10.80;;
68432;SDS011;55412;51.350;17.056;2023-06-22T07:22:37;13.50;;;9.55;;
68432;SDS011;55412;51.350;17.056;2023-06-22T07:25:05;10.75;;;8.93;;
68432;SDS011;55412;51.350;17.056;2023-06-22T07:27:38;12.30;;;9.60;;
68432;SDS011;55412;51.350;17.056;2023-06-22T07:30:09;11.57;;;8.73;;
68432;SDS011;55412;51.350;17.056;2023-06-22T07:32:36;11.27;;;8.73;;
68432;SDS011;55412;51.350;17.056;2023-06-22T07:35:02;11.40;;;9.23;;
68432;SDS011;55412;51.350;17.056;2023-06-22T07:37:29;16.23;;;10.50;;
68432;SDS011;55412;51.350;17.056;2023-06-22T07:39:55;12.33;;;10.20;;
68432;SDS011;55412;51.350;17.056;2023-06-22T07:42:25;12.23;;;8.65;;
68432;SDS011;55412;51.350;17.056;2023-06-22T07:44:51;13.27;;;10.15;;
68432;SDS011;55412;51.350;17.056;2023-06-22T07:47:18;14.00;;;9.90;;
68432;SDS011;55412;51.350;17.056;2023-06-22T07:49:45;12.50;;;9.90;;
68432;SDS011;55412;51.350;17.056;2023-06-22T07:52:12;10.97;;;8.63;;
68432;SDS011;55412;51.350;17.056;2023-06-22T07:54:38;10.75;;;8.90;;
68432;SDS011;55412;51.350;17.056;2023-06-22T07:57:05;12.52;;;9.73;;
68432;SDS011;55412;51.350;17.056;2023-06-22T07:59:31;12.15;;;8.90;;
68432;SDS011;55412;51.350;17.056;2023-06-22T08:01:57;12.87;;;9.27;;
68432;SDS011;55412;51.350;17.056;2023-06-22T08:04:23;12.87;;;9.00;;
68432;SDS011;55412;51.350;17.056;2023-06-22T08:06:49;12.82;;;8.13;;
68432;SDS011;55412;51.350;17.056;2023-06-22T08:09:15;12.13;;;9.25;;
68432;SDS011;55412;51.350;17.056;2023-06-22T08:11:41;10.98;;;8.32;;
68432;SDS011;55412;51.350;17.056;2023-06-22T08:14:07;11.45;;;8.85;;
68432;SDS011;55412;51.350;17.056;2023-06-22T08:16:33;11.07;;;8.33;;
68432;SDS011;55412;51.350;17.056;2023-06-22T08:18:59;11.23;;;7.68;;
68432;SDS011;55412;51.350;17.056;2023-06-22T08:21:25;10.75;;;8.20;;
68432;SDS011;55412;51.350;17.056;2023-06-22T08:23:51;11.75;;;8.00;;
68432;SDS011;55412;51.350;17.056;2023-06-22T08:26:17;10.18;;;7.72;;
68432;SDS011;55412;51.350;17.056;2023-06-22T08:28:43;12.67;;;7.70;;
68432;SDS011;55412;51.350;17.056;2023-06-22T08:31:09;13.93;;;8.15;;
68432;SDS011;55412;51.350;17.056;2023-06-22T08:33:37;9.85;;;7.20;;
68432;SDS011;55412;51.350;17.056;2023-06-22T08:36:03;11.00;;;8.15;;
68432;SDS011;55412;51.350;17.056;2023-06-22T08:38:31;11.68;;;6.43;;
68432;SDS011;55412;51.350;17.056;2023-06-22T08:40:57;10.10;;;6.90;;
68432;SDS011;55412;51.350;17.056;2023-06-22T08:43:23;9.52;;;6.88;;
68432;SDS011;55412;51.350;17.056;2023-06-22T08:45:49;11.55;;;6.60;;
68432;SDS011;55412;51.350;17.056;2023-06-22T08:48:15;10.40;;;7.20;;
68432;SDS011;55412;51.350;17.056;2023-06-22T08:50:41;9.60;;;6.78;;
68432;SDS011;55412;51.350;17.056;2023-06-22T08:53:07;8.17;;;6.03;;
68432;SDS011;55412;51.350;17.056;2023-06-22T08:55:33;8.77;;;6.57;;
68432;SDS011;55412;51.350;17.056;2023-06-22T08:57:59;9.90;;;6.45;;
68432;SDS011;55412;51.350;17.056;2023-06-22T09:00:25;10.73;;;6.55;;
68432;SDS011;55412;51.350;17.056;2023-06-22T09:02:54;11.13;;;6.80;;
68432;SDS011;55412;51.350;17.056;2023-06-22T09:05:24;10.93;;;6.30;;
68432;SDS011;55412;51.350;17.056;2023-06-22T09:07:51;8.73;;;5.65;;
68432;SDS011;55412;51.350;17.056;2023-06-22T09:10:19;10.68;;;5.90;;
68432;SDS011;55412;51.350;17.056;2023-06-22T09:12:45;9.50;;;6.47;;
68432;SDS011;55412;51.350;17.056;2023-06-22T09:15:12;9.40;;;6.45;;
68432;SDS011;55412;51.350;17.056;2023-06-22T09:17:38;10.77;;;6.40;;
68432;SDS011;55412;51.350;17.056;2023-06-22T09:20:06;10.70;;;6.30;;
68432;SDS011;55412;51.350;17.056;2023-06-22T09:22:35;10.55;;;6.32;;
68432;SDS011;55412;51.350;17.056;2023-06-22T09:25:01;9.60;;;5.22;;
68432;SDS011;55412;51.350;17.056;2023-06-22T09:27:28;8.85;;;5.30;;
68432;SDS011;55412;51.350;17.056;2023-06-22T09:29:54;8.97;;;5.63;;
68432;SDS011;55412;51.350;17.056;2023-06-22T09:32:20;9.68;;;5.53;;
68432;SDS011;55412;51.350;17.056;2023-06-22T09:34:46;10.75;;;6.25;;
68432;SDS011;55412;51.350;17.056;2023-06-22T09:37:13;8.23;;;6.22;;
68432;SDS011;55412;51.350;17.056;2023-06-22T09:39:39;10.25;;;5.63;;
68432;SDS011;55412;51.350;17.056;2023-06-22T09:42:05;9.90;;;6.03;;
68432;SDS011;55412;51.350;17.056;2023-06-22T09:44:31;8.00;;;5.55;;
68432;SDS011;55412;51.350;17.056;2023-06-22T09:46:57;8.85;;;5.80;;
68432;SDS011;55412;51.350;17.056;2023-06-22T09:49:23;8.13;;;5.22;;
68432;SDS011;55412;51.350;17.056;2023-06-22T09:51:49;10.25;;;5.47;;
68432;SDS011;55412;51.350;17.056;2023-06-22T09:54:16;9.00;;;5.83;;
68432;SDS011;55412;51.350;17.056;2023-06-22T09:56:42;8.38;;;5.03;;
68432;SDS011;55412;51.350;17.056;2023-06-22T09:59:08;9.32;;;5.70;;
68432;SDS011;55412;51.350;17.056;2023-06-22T10:01:34;10.05;;;5.43;;
68432;SDS011;55412;51.350;17.056;2023-06-22T10:04:01;13.60;;;6.10;;
68432;SDS011;55412;51.350;17.056;2023-06-22T10:06:28;8.57;;;5.27;;
68432;SDS011;55412;51.350;17.056;2023-06-22T10:08:54;10.82;;;5.72;;
68432;SDS011;55412;51.350;17.056;2023-06-22T10:11:20;8.27;;;5.45;;
68432;SDS011;55412;51.350;17.056;2023-06-22T10:13:52;9.15;;;5.50;;
68432;SDS011;55412;51.350;17.056;2023-06-22T10:16:18;9.95;;;5.20;;
68432;SDS011;55412;51.350;17.056;2023-06-22T10:18:44;8.47;;;5.07;;
68432;SDS011;55412;51.350;17.056;2023-06-22T10:21:10;7.93;;;5.18;;
68432;SDS011;55412;51.350;17.056;2023-06-22T10:23:36;7.32;;;4.63;;
68432;SDS011;55412;51.350;17.056;2023-06-22T10:26:02;6.97;;;4.85;;
68432;SDS011;55412;51.350;17.056;2023-06-22T10:28:27;8.23;;;5.00;;
68432;SDS011;55412;51.350;17.056;2023-06-22T10:30:53;9.70;;;5.00;;
68432;SDS011;55412;51.350;17.056;2023-06-22T10:33:19;7.63;;;4.93;;
68432;SDS011;55412;51.350;17.056;2023-06-22T10:35:46;7.40;;;5.18;;
68432;SDS011;55412;51.350;17.056;2023-06-22T10:38:12;8.98;;;5.85;;
68432;SDS011;55412;51.350;17.056;2023-06-22T10:40:38;8.27;;;5.47;;
68432;SDS011;55412;51.350;17.056;2023-06-22T10:43:04;7.07;;;5.43;;
68432;SDS011;55412;51.350;17.056;2023-06-22T10:45:30;10.57;;;6.00;;
68432;SDS011;55412;51.350;17.056;2023-06-22T10:47:56;8.10;;;5.13;;
68432;SDS011;55412;51.350;17.056;2023-06-22T10:50:22;8.07;;;6.00;;
68432;SDS011;55412;51.350;17.056;2023-06-22T10:52:50;6.90;;;4.50;;
68432;SDS011;55412;51.350;17.056;2023-06-22T10:55:16;8.02;;;4.80;;
68432;SDS011;55412;51.350;17.056;2023-06-22T10:57:42;8.02;;;5.38;;
68432;SDS011;55412;51.350;17.056;2023-06-22T11:00:09;9.75;;;5.45;;
68432;SDS011;55412;51.350;17.056;2023-06-22T11:02:37;8.30;;;5.28;;
68432;SDS011;55412;51.350;17.056;2023-06-22T11:05:03;7.40;;;4.77;;
68432;SDS011;55412;51.350;17.056;2023-06-22T11:07:30;8.48;;;5.05;;
68432;SDS011;55412;51.350;17.056;2023-06-22T11:09:56;10.13;;;5.50;;
68432;SDS011;55412;51.350;17.056;2023-06-22T11:12:22;8.80;;;4.82;;
68432;SDS011;55412;51.350;17.056;2023-06-22T11:14:48;7.68;;;5.90;;
68432;SDS011;55412;51.350;17.056;2023-06-22T11:17:16;11.20;;;4.43;;
68432;SDS011;55412;51.350;17.056;2023-06-22T11:19:44;7.95;;;5.32;;
68432;SDS011;55412;51.350;17.056;2023-06-22T11:22:10;10.60;;;5.15;;
68432;SDS011;55412;51.350;17.056;2023-06-22T11:24:36;7.00;;;4.82;;
68432;SDS011;55412;51.350;17.056;2023-06-22T11:27:02;8.77;;;5.82;;
68432;SDS011;55412;51.350;17.056;2023-06-22T11:29:28;8.53;;;5.20;;
68432;SDS011;55412;51.350;17.056;2023-06-22T11:31:56;10.48;;;5.30;;
68432;SDS011;55412;51.350;17.056;2023-06-22T11:34:21;9.65;;;6.13;;
68432;SDS011;55412;51.350;17.056;2023-06-22T11:36:48;8.93;;;4.97;;
68432;SDS011;55412;51.350;17.056;2023-06-22T11:39:14;6.88;;;4.65;;
68432;SDS011;55412;51.350;17.056;2023-06-22T11:41:40;10.00;;;5.67;;
68432;SDS011;55412;51.350;17.056;2023-06-22T11:44:07;7.25;;;4.97;;
68432;SDS011;55412;51.350;17.056;2023-06-22T11:46:33;6.97;;;4.55;;
68432;SDS011;55412;51.350;17.056;2023-06-22T11:49:00;9.30;;;4.60;;
68432;SDS011;55412;51.350;17.056;2023-06-22T11:51:27;6.75;;;4.70;;
68432;SDS011;55412;51.350;17.056;2023-06-22T11:53:53;7.80;;;4.73;;
68432;SDS011;55412;51.350;17.056;2023-06-22T11:56:19;10.35;;;5.28;;
68432;SDS011;55412;51.350;17.056;2023-06-22T11:58:45;7.53;;;4.53;;
68432;SDS011;55412;51.350;17.056;2023-06-22T12:01:11;7.00;;;4.70;;
68432;SDS011;55412;51.350;17.056;2023-06-22T12:03:40;6.55;;;4.60;;
68432;SDS011;55412;51.350;17.056;2023-06-22T12:06:08;7.07;;;4.67;;
68432;SDS011;55412;51.350;17.056;2023-06-22T12:08:34;10.13;;;4.43;;
68432;SDS011;55412;51.350;17.056;2023-06-22T12:11:00;7.45;;;4.82;;
68432;SDS011;55412;51.350;17.056;2023-06-22T12:13:26;8.65;;;5.15;;
68432;SDS011;55412;51.350;17.056;2023-06-22T12:15:52;9.57;;;5.30;;
68432;SDS011;55412;51.350;17.056;2023-06-22T12:18:18;10.37;;;5.63;;
68432;SDS011;55412;51.350;17.056;2023-06-22T12:20:46;8.35;;;4.90;;
68432;SDS011;55412;51.350;17.056;2023-06-22T12:23:12;8.02;;;5.05;;
68432;SDS011;55412;51.350;17.056;2023-06-22T12:25:40;9.00;;;5.13;;
68432;SDS011;55412;51.350;17.056;2023-06-22T12:28:06;7.25;;;5.05;;
68432;SDS011;55412;51.350;17.056;2023-06-22T12:30:35;7.77;;;4.97;;
68432;SDS011;55412;51.350;17.056;2023-06-22T12:33:01;7.18;;;5.15;;
68432;SDS011;55412;51.350;17.056;2023-06-22T12:35:27;7.97;;;5.25;;
68432;SDS011;55412;51.350;17.056;2023-06-22T12:37:53;7.28;;;4.70;;
68432;SDS011;55412;51.350;17.056;2023-06-22T12:40:19;9.13;;;4.88;;
68432;SDS011;55412;51.350;17.056;2023-06-22T12:42:45;7.57;;;5.23;;
68432;SDS011;55412;51.350;17.056;2023-06-22T12:45:11;21.27;;;7.00;;
68432;SDS011;55412;51.350;17.056;2023-06-22T12:47:37;41.80;;;10.75;;
68432;SDS011;55412;51.350;17.056;2023-06-22T12:50:03;13.82;;;6.15;;
68432;SDS011;55412;51.350;17.056;2023-06-22T12:52:30;18.13;;;7.32;;
68432;SDS011;55412;51.350;17.056;2023-06-22T12:54:59;9.47;;;5.33;;
68432;SDS011;55412;51.350;17.056;2023-06-22T12:57:25;13.25;;;4.43;;
68432;SDS011;55412;51.350;17.056;2023-06-22T12:59:51;12.43;;;5.70;;
68432;SDS011;55412;51.350;17.056;2023-06-22T13:02:18;11.15;;;5.32;;
68432;SDS011;55412;51.350;17.056;2023-06-22T13:04:44;6.60;;;4.78;;
68432;SDS011;55412;51.350;17.056;2023-06-22T13:07:10;8.80;;;5.33;;
68432;SDS011;55412;51.350;17.056;2023-06-22T13:09:36;7.30;;;5.05;;
68432;SDS011;55412;51.350;17.056;2023-06-22T13:12:03;8.00;;;5.30;;
68432;SDS011;55412;51.350;17.056;2023-06-22T13:14:29;7.03;;;5.00;;
68432;SDS011;55412;51.350;17.056;2023-06-22T13:16:55;9.68;;;5.82;;
68432;SDS011;55412;51.350;17.056;2023-06-22T13:19:21;9.23;;;5.77;;
68432;SDS011;55412;51.350;17.056;2023-06-22T13:21:47;7.57;;;4.78;;
68432;SDS011;55412;51.350;17.056;2023-06-22T13:24:13;6.35;;;4.80;;
68432;SDS011;55412;51.350;17.056;2023-06-22T13:26:41;8.68;;;5.43;;
68432;SDS011;55412;51.350;17.056;2023-06-22T13:29:07;6.30;;;4.55;;
68432;SDS011;55412;51.350;17.056;2023-06-22T13:31:33;8.80;;;5.20;;
68432;SDS011;55412;51.350;17.056;2023-06-22T13:33:59;7.82;;;4.60;;
68432;SDS011;55412;51.350;17.056;2023-06-22T13:36:25;7.70;;;5.15;;
68432;SDS011;55412;51.350;17.056;2023-06-22T13:38:51;7.35;;;5.90;;
68432;SDS011;55412;51.350;17.056;2023-06-22T13:41:17;11.02;;;4.95;;
68432;SDS011;55412;51.350;17.056;2023-06-22T13:43:43;6.87;;;4.80;;
68432;SDS011;55412;51.350;17.056;2023-06-22T13:46:09;9.95;;;6.03;;
68432;SDS011;55412;51.350;17.056;2023-06-22T13:48:35;9.57;;;4.43;;
68432;SDS011;55412;51.350;17.056;2023-06-22T13:51:01;8.15;;;5.43;;
68432;SDS011;55412;51.350;17.056;2023-06-22T13:53:28;8.02;;;5.97;;
68432;SDS011;55412;51.350;17.056;2023-06-22T13:55:54;8.37;;;5.27;;
68432;SDS011;55412;51.350;17.056;2023-06-22T13:58:21;8.02;;;5.50;;
68432;SDS011;55412;51.350;17.056;2023-06-22T14:00:48;8.55;;;5.40;;
68432;SDS011;55412;51.350;17.056;2023-06-22T14:03:14;7.38;;;5.40;;
68432;SDS011;55412;51.350;17.056;2023-06-22T14:05:43;8.20;;;5.10;;
68432;SDS011;55412;51.350;17.056;2023-06-22T14:08:09;7.30;;;4.70;;
68432;SDS011;55412;51.350;17.056;2023-06-22T14:10:36;7.60;;;4.80;;
68432;SDS011;55412;51.350;17.056;2023-06-22T14:13:02;9.38;;;5.45;;
68432;SDS011;55412;51.350;17.056;2023-06-22T14:15:31;7.75;;;4.88;;
68432;SDS011;55412;51.350;17.056;2023-06-22T14:17:57;7.70;;;4.82;;
68432;SDS011;55412;51.350;17.056;2023-06-22T14:20:23;7.63;;;4.70;;
68432;SDS011;55412;51.350;17.056;2023-06-22T14:22:50;7.35;;;4.80;;